Emilee Alexis — WDH9019 — position and weather

sailwx.info

Track history (hours):
 
Tides and Currents Weather Stations Pressure Air Temp Water Temp Dewpoint Dewpoint Depression Visibility Wind Speed Wind Dir Waves Ship Positions

Emilee Alexis

Owner: Aycock Towing Co., Inc., New Iberia, LA. More information available from US FCC via Universal Licensing System and Coast Guard Vessel Documentation Center.

Last reported at 2018-Feb-20 00:40 UTC. Time now 2018-Feb-20 05:26 UTC.
Position N 29°50' W 092°20'.

Length 22 m.

Type: Tug. MMSI: 366967790.

Date/timePositionNaut miles runAvg speedWind from/ knotsBaromVisibWave heightAir tempDewpointWater temp
2018-Feb-20 00:40N 29°50' W 092°20'1 4.5
2018-Feb-20 00:24N 29°50' W 092°18'2 4.4
2018-Feb-20 00:00N 29°49' W 092°17'2 4.6
2018-Feb-19 23:30N 29°48' W 092°15'2 4.4
2018-Feb-19 23:00N 29°47' W 092°12'2 4.2
2018-Feb-19 22:30N 29°47' W 092°10'2 4.4
2018-Feb-19 22:00N 29°47' W 092°07'2 4.4
2018-Feb-19 21:30N 29°48' W 092°05'2 4.3
2018-Feb-19 21:00N 29°49' W 092°03'2 4.3
2018-Feb-19 20:30N 29°50' W 092°00'2 4.3
2018-Feb-19 20:00N 29°50' W 091°58'2 4.4
2018-Feb-19 19:30N 29°51' W 091°56'60 4.3
2018-Feb-19 05:40N 29°32' W 090°50'1 4.8
2018-Feb-19 05:30N 29°32' W 090°49'2 4.6
2018-Feb-19 05:00N 29°32' W 090°47'2 3.9
2018-Feb-19 04:30N 29°33' W 090°45'2 3.8
2018-Feb-19 04:00N 29°34' W 090°43'2 3.4
2018-Feb-19 03:30N 29°36' W 090°43'1 2.5
2018-Feb-19 03:00N 29°37' W 090°42'0 0.1
2018-Feb-19 02:30N 29°37' W 090°42'0 0.0
2018-Feb-19 01:57N 29°37' W 090°42'1 1.3
2018-Feb-19 01:30N 29°36' W 090°41'1 2.5
2018-Feb-19 00:59N 29°36' W 090°40'2 4.6
2018-Feb-19 00:30N 29°35' W 090°37'1 2.9
2018-Feb-19 00:00N 29°35' W 090°36'2 4.2
2018-Feb-18 23:30N 29°34' W 090°33'2 4.5
2018-Feb-18 23:00N 29°34' W 090°31'4 0.2
2018-Feb-17 20:10N 29°35' W 090°36'1 6.1
2018-Feb-17 20:00N 29°35' W 090°37'3 6.9
2018-Feb-17 19:30N 29°36' W 090°40'2 4.4
2018-Feb-17 19:00N 29°35' W 090°43'3 6.4
2018-Feb-17 18:30N 29°33' W 090°45'3 6.6
2018-Feb-17 18:00N 29°32' W 090°49'  
2018-Feb-14 05:58N 29°48' W 092°05'3 6.0
2018-Feb-14 05:29N 29°47' W 092°08'2 4.5
2018-Feb-14 05:00N 29°49' W 092°08'1 1.8
2018-Feb-14 04:30N 29°50' W 092°08'  
Track history (hours):
 
Tides and Currents Weather Stations Pressure Air Temp Water Temp Dewpoint Dewpoint Depression Visibility Wind Speed Wind Dir Waves Ship Positions

Emilee Alexis

Owner: Aycock Towing Co., Inc., New Iberia, LA. More information available from US FCC via Universal Licensing System and Coast Guard Vessel Documentation Center.

Last reported at 2018-Feb-20 00:40 UTC. Time now 2018-Feb-20 05:26 UTC.
Position N 29°50' W 092°20'.

Length 22 m.

Type: Tug. MMSI: 366967790.

Date/timePositionNaut miles runAvg speedWind from/ knotsBaromVisibWave heightAir tempDewpointWater temp
2018-Feb-20 00:40N 29°50' W 092°20'1 4.5
2018-Feb-20 00:24N 29°50' W 092°18'2 4.4
2018-Feb-20 00:00N 29°49' W 092°17'2 4.6
2018-Feb-19 23:30N 29°48' W 092°15'2 4.4
2018-Feb-19 23:00N 29°47' W 092°12'2 4.2
2018-Feb-19 22:30N 29°47' W 092°10'2 4.4
2018-Feb-19 22:00N 29°47' W 092°07'2 4.4
2018-Feb-19 21:30N 29°48' W 092°05'2 4.3
2018-Feb-19 21:00N 29°49' W 092°03'2 4.3
2018-Feb-19 20:30N 29°50' W 092°00'2 4.3
2018-Feb-19 20:00N 29°50' W 091°58'2 4.4
2018-Feb-19 19:30N 29°51' W 091°56'60 4.3
2018-Feb-19 05:40N 29°32' W 090°50'1 4.8
2018-Feb-19 05:30N 29°32' W 090°49'2 4.6
2018-Feb-19 05:00N 29°32' W 090°47'2 3.9
2018-Feb-19 04:30N 29°33' W 090°45'2 3.8
2018-Feb-19 04:00N 29°34' W 090°43'2 3.4
2018-Feb-19 03:30N 29°36' W 090°43'1 2.5
2018-Feb-19 03:00N 29°37' W 090°42'0 0.1
2018-Feb-19 02:30N 29°37' W 090°42'0 0.0
2018-Feb-19 01:57N 29°37' W 090°42'1 1.3
2018-Feb-19 01:30N 29°36' W 090°41'1 2.5
2018-Feb-19 00:59N 29°36' W 090°40'2 4.6
2018-Feb-19 00:30N 29°35' W 090°37'1 2.9
2018-Feb-19 00:00N 29°35' W 090°36'2 4.2
2018-Feb-18 23:30N 29°34' W 090°33'2 4.5
2018-Feb-18 23:00N 29°34' W 090°31'4 0.2
2018-Feb-17 20:10N 29°35' W 090°36'1 6.1
2018-Feb-17 20:00N 29°35' W 090°37'3 6.9
2018-Feb-17 19:30N 29°36' W 090°40'2 4.4
2018-Feb-17 19:00N 29°35' W 090°43'3 6.4
2018-Feb-17 18:30N 29°33' W 090°45'3 6.6
2018-Feb-17 18:00N 29°32' W 090°49'  
2018-Feb-14 05:58N 29°48' W 092°05'3 6.0
2018-Feb-14 05:29N 29°47' W 092°08'2 4.5
2018-Feb-14 05:00N 29°49' W 092°08'1 1.8
2018-Feb-14 04:30N 29°50' W 092°08'  

Dump ship's entire track history